sensor_id;sensor_type;location;lat;lon;timestamp;pressure;altitude;pressure_sealevel;temperature;humidity
11190;BME280;5651;50.926;4.718;2023-01-27T00:00:23;102298.22;;;4.66;100.00
11190;BME280;5651;50.926;4.718;2023-01-27T00:02:48;102300.16;;;4.70;100.00
11190;BME280;5651;50.926;4.718;2023-01-27T00:05:15;102295.66;;;4.66;100.00
11190;BME280;5651;50.926;4.718;2023-01-27T00:07:41;102300.97;;;4.69;100.00
11190;BME280;5651;50.926;4.718;2023-01-27T00:10:13;102291.28;;;4.65;100.00
11190;BME280;5651;50.926;4.718;2023-01-27T00:12:41;102297.41;;;4.67;100.00
11190;BME280;5651;50.926;4.718;2023-01-27T00:15:25;102281.97;;;4.69;100.00
11190;BME280;5651;50.926;4.718;2023-01-27T00:17:51;102294.97;;;4.70;100.00
11190;BME280;5651;50.926;4.718;2023-01-27T00:20:17;102304.50;;;4.71;100.00
11190;BME280;5651;50.926;4.718;2023-01-27T00:23:03;102301.97;;;4.73;100.00
11190;BME280;5651;50.926;4.718;2023-01-27T00:25:47;102296.59;;;4.68;100.00
11190;BME280;5651;50.926;4.718;2023-01-27T00:28:15;102301.06;;;4.72;100.00
11190;BME280;5651;50.926;4.718;2023-01-27T00:30:51;102296.81;;;4.73;100.00
11190;BME280;5651;50.926;4.718;2023-01-27T00:33:17;102295.09;;;4.73;100.00
11190;BME280;5651;50.926;4.718;2023-01-27T00:35:52;102292.50;;;4.73;100.00
11190;BME280;5651;50.926;4.718;2023-01-27T00:38:20;102286.59;;;4.76;100.00
11190;BME280;5651;50.926;4.718;2023-01-27T00:40:45;102289.38;;;4.81;100.00
11190;BME280;5651;50.926;4.718;2023-01-27T00:43:31;102285.91;;;4.80;100.00
11190;BME280;5651;50.926;4.718;2023-01-27T00:45:57;102282.53;;;4.81;100.00
11190;BME280;5651;50.926;4.718;2023-01-27T00:48:22;102277.41;;;4.83;100.00
11190;BME280;5651;50.926;4.718;2023-01-27T00:50:48;102278.31;;;4.83;100.00
11190;BME280;5651;50.926;4.718;2023-01-27T00:53:14;102282.63;;;4.84;100.00
11190;BME280;5651;50.926;4.718;2023-01-27T00:55:40;102285.22;;;4.84;100.00
11190;BME280;5651;50.926;4.718;2023-01-27T00:58:06;102276.22;;;4.74;100.00
11190;BME280;5651;50.926;4.718;2023-01-27T01:00:32;102276.25;;;4.76;100.00
11190;BME280;5651;50.926;4.718;2023-01-27T01:02:57;102284.09;;;4.78;100.00
11190;BME280;5651;50.926;4.718;2023-01-27T01:05:23;102278.94;;;4.78;100.00
11190;BME280;5651;50.926;4.718;2023-01-27T01:07:49;102272.06;;;4.78;100.00
11190;BME280;5651;50.926;4.718;2023-01-27T01:10:15;102281.44;;;4.76;100.00
11190;BME280;5651;50.926;4.718;2023-01-27T01:12:40;102274.59;;;4.76;100.00
11190;BME280;5651;50.926;4.718;2023-01-27T01:15:06;102278.59;;;4.70;100.00
11190;BME280;5651;50.926;4.718;2023-01-27T01:17:32;102282.19;;;4.73;100.00
11190;BME280;5651;50.926;4.718;2023-01-27T01:19:58;102282.06;;;4.70;100.00
11190;BME280;5651;50.926;4.718;2023-01-27T01:22:23;102280.41;;;4.72;100.00
11190;BME280;5651;50.926;4.718;2023-01-27T01:24:49;102276.22;;;4.74;100.00
11190;BME280;5651;50.926;4.718;2023-01-27T01:27:15;102279.50;;;4.70;100.00
11190;BME280;5651;50.926;4.718;2023-01-27T01:29:40;102275.81;;;4.65;100.00
11190;BME280;5651;50.926;4.718;2023-01-27T01:32:06;102280.09;;;4.65;100.00
11190;BME280;5651;50.926;4.718;2023-01-27T01:34:35;102274.88;;;4.63;100.00
11190;BME280;5651;50.926;4.718;2023-01-27T01:37:01;102281.88;;;4.66;100.00
11190;BME280;5651;50.926;4.718;2023-01-27T01:39:28;102274.13;;;4.66;100.00
11190;BME280;5651;50.926;4.718;2023-01-27T01:41:53;102282.88;;;4.69;100.00
11190;BME280;5651;50.926;4.718;2023-01-27T01:44:25;102280.16;;;4.66;100.00
11190;BME280;5651;50.926;4.718;2023-01-27T01:46:51;102286.13;;;4.65;100.00
11190;BME280;5651;50.926;4.718;2023-01-27T01:49:20;102288.66;;;4.64;100.00
11190;BME280;5651;50.926;4.718;2023-01-27T01:51:53;102290.38;;;4.63;100.00
11190;BME280;5651;50.926;4.718;2023-01-27T01:54:41;102292.81;;;4.60;100.00
11190;BME280;5651;50.926;4.718;2023-01-27T01:57:16;102286.06;;;4.64;100.00
11190;BME280;5651;50.926;4.718;2023-01-27T01:59:47;102284.19;;;4.59;100.00
11190;BME280;5651;50.926;4.718;2023-01-27T02:02:17;102287.44;;;4.55;100.00
11190;BME280;5651;50.926;4.718;2023-01-27T02:04:54;102294.50;;;4.59;100.00
11190;BME280;5651;50.926;4.718;2023-01-27T02:07:27;102287.53;;;4.57;100.00
11190;BME280;5651;50.926;4.718;2023-01-27T02:09:53;102290.81;;;4.54;100.00
11190;BME280;5651;50.926;4.718;2023-01-27T02:12:20;102292.47;;;4.52;100.00
11190;BME280;5651;50.926;4.718;2023-01-27T02:14:46;102287.03;;;4.46;100.00
11190;BME280;5651;50.926;4.718;2023-01-27T02:17:12;102293.16;;;4.48;100.00
11190;BME280;5651;50.926;4.718;2023-01-27T02:20:05;102295.13;;;4.54;100.00
11190;BME280;5651;50.926;4.718;2023-01-27T02:28:04;102290.91;;;4.56;100.00
11190;BME280;5651;50.926;4.718;2023-01-27T02:30:30;102296.91;;;4.55;100.00
11190;BME280;5651;50.926;4.718;2023-01-27T02:32:56;102289.16;;;4.55;100.00
11190;BME280;5651;50.926;4.718;2023-01-27T02:35:32;102289.16;;;4.55;100.00
11190;BME280;5651;50.926;4.718;2023-01-27T02:38:02;102295.88;;;4.51;100.00
11190;BME280;5651;50.926;4.718;2023-01-27T02:40:29;102298.47;;;4.51;100.00
11190;BME280;5651;50.926;4.718;2023-01-27T02:42:55;102290.63;;;4.50;100.00
11190;BME280;5651;50.926;4.718;2023-01-27T02:45:22;102286.41;;;4.52;100.00
11190;BME280;5651;50.926;4.718;2023-01-27T02:47:48;102289.00;;;4.52;100.00
11190;BME280;5651;50.926;4.718;2023-01-27T02:50:14;102288.25;;;4.54;100.00
11190;BME280;5651;50.926;4.718;2023-01-27T02:52:39;102303.88;;;4.57;100.00
11190;BME280;5651;50.926;4.718;2023-01-27T02:55:05;102298.50;;;4.53;100.00
11190;BME280;5651;50.926;4.718;2023-01-27T02:57:31;102287.31;;;4.52;100.00
11190;BME280;5651;50.926;4.718;2023-01-27T02:59:57;102303.69;;;4.53;100.00
11190;BME280;5651;50.926;4.718;2023-01-27T03:02:23;102290.44;;;4.45;100.00
11190;BME280;5651;50.926;4.718;2023-01-27T03:04:58;102293.69;;;4.41;100.00
11190;BME280;5651;50.926;4.718;2023-01-27T03:07:24;102301.16;;;4.35;100.00
11190;BME280;5651;50.926;4.718;2023-01-27T03:09:51;102301.31;;;4.38;100.00
11190;BME280;5651;50.926;4.718;2023-01-27T03:12:16;102310.19;;;4.44;100.00
11190;BME280;5651;50.926;4.718;2023-01-27T03:14:49;102310.94;;;4.42;100.00
11190;BME280;5651;50.926;4.718;2023-01-27T03:17:35;102316.06;;;4.40;100.00
11190;BME280;5651;50.926;4.718;2023-01-27T03:20:19;102318.22;;;4.31;100.00
11190;BME280;5651;50.926;4.718;2023-01-27T03:22:47;102310.31;;;4.28;100.00
11190;BME280;5651;50.926;4.718;2023-01-27T03:25:14;102318.06;;;4.28;100.00
11190;BME280;5651;50.926;4.718;2023-01-27T03:27:40;102331.78;;;4.27;100.00
11190;BME280;5651;50.926;4.718;2023-01-27T03:30:06;102331.38;;;4.37;100.00
11190;BME280;5651;50.926;4.718;2023-01-27T03:32:32;102340.75;;;4.35;100.00
11190;BME280;5651;50.926;4.718;2023-01-27T03:34:58;102329.34;;;4.30;100.00
11190;BME280;5651;50.926;4.718;2023-01-27T03:37:26;102334.16;;;4.22;100.00
11190;BME280;5651;50.926;4.718;2023-01-27T03:40:12;102335.72;;;4.19;100.00
11190;BME280;5651;50.926;4.718;2023-01-27T03:42:57;102329.72;;;4.20;100.00
11190;BME280;5651;50.926;4.718;2023-01-27T03:45:46;102336.09;;;4.08;100.00
11190;BME280;5651;50.926;4.718;2023-01-27T03:48:30;102329.03;;;4.04;100.00
11190;BME280;5651;50.926;4.718;2023-01-27T03:50:57;102336.75;;;4.04;100.00
11190;BME280;5651;50.926;4.718;2023-01-27T03:53:23;102331.59;;;4.04;100.00
11190;BME280;5651;50.926;4.718;2023-01-27T03:55:49;102328.97;;;4.03;100.00
11190;BME280;5651;50.926;4.718;2023-01-27T04:00:55;102338.25;;;3.99;100.00
11190;BME280;5651;50.926;4.718;2023-01-27T04:03:23;102338.25;;;3.99;100.00
11190;BME280;5651;50.926;4.718;2023-01-27T04:06:12;102341.41;;;3.93;100.00
11190;BME280;5651;50.926;4.718;2023-01-27T04:08:56;102346.72;;;3.96;100.00
11190;BME280;5651;50.926;4.718;2023-01-27T04:11:22;102342.16;;;3.91;100.00
11190;BME280;5651;50.926;4.718;2023-01-27T04:14:07;102348.44;;;3.96;100.00
11190;BME280;5651;50.926;4.718;2023-01-27T04:16:34;102345.03;;;3.97;100.00
11190;BME280;5651;50.926;4.718;2023-01-27T04:19:05;102350.78;;;3.91;100.00
11190;BME280;5651;50.926;4.718;2023-01-27T04:21:32;102344.84;;;3.92;100.00
11190;BME280;5651;50.926;4.718;2023-01-27T04:23:58;102346.50;;;3.92;100.00
11190;BME280;5651;50.926;4.718;2023-01-27T04:26:24;102343.94;;;3.92;100.00
11190;BME280;5651;50.926;4.718;2023-01-27T04:28:50;102352.41;;;3.89;100.00
11190;BME280;5651;50.926;4.718;2023-01-27T04:31:16;102354.19;;;3.90;100.00
11190;BME280;5651;50.926;4.718;2023-01-27T04:33:43;102358.38;;;3.88;100.00
11190;BME280;5651;50.926;4.718;2023-01-27T04:36:10;102353.22;;;3.88;100.00
11190;BME280;5651;50.926;4.718;2023-01-27T04:38:37;102361.75;;;3.87;100.00
11190;BME280;5651;50.926;4.718;2023-01-27T04:41:02;102359.28;;;3.89;100.00
11190;BME280;5651;50.926;4.718;2023-01-27T04:43:28;102359.03;;;4.02;100.00
11190;BME280;5651;50.926;4.718;2023-01-27T04:45:54;102355.84;;;4.08;100.00
11190;BME280;5651;50.926;4.718;2023-01-27T04:48:20;102353.06;;;4.03;100.00
11190;BME280;5651;50.926;4.718;2023-01-27T04:50:45;102361.47;;;3.99;100.00
11190;BME280;5651;50.926;4.718;2023-01-27T04:53:11;102362.53;;;4.04;100.00
11190;BME280;5651;50.926;4.718;2023-01-27T04:55:37;102374.56;;;4.04;100.00
11190;BME280;5651;50.926;4.718;2023-01-27T04:58:03;102365.44;;;4.10;100.00
11190;BME280;5651;50.926;4.718;2023-01-27T05:00:30;102367.34;;;4.15;100.00
11190;BME280;5651;50.926;4.718;2023-01-27T05:02:56;102370.72;;;4.13;100.00
11190;BME280;5651;50.926;4.718;2023-01-27T05:05:21;102371.75;;;4.17;100.00
11190;BME280;5651;50.926;4.718;2023-01-27T05:07:47;102370.81;;;4.15;100.00
11190;BME280;5651;50.926;4.718;2023-01-27T05:10:13;102380.59;;;4.04;100.00
11190;BME280;5651;50.926;4.718;2023-01-27T05:12:38;102372.44;;;4.13;100.00
11190;BME280;5651;50.926;4.718;2023-01-27T05:15:04;102377.97;;;4.03;100.00
11190;BME280;5651;50.926;4.718;2023-01-27T05:17:31;102385.91;;;4.07;100.00
11190;BME280;5651;50.926;4.718;2023-01-27T05:19:57;102378.72;;;4.00;100.00
11190;BME280;5651;50.926;4.718;2023-01-27T05:22:23;102372.69;;;4.00;100.00
11190;BME280;5651;50.926;4.718;2023-01-27T05:24:49;102384.53;;;3.96;100.00
11190;BME280;5651;50.926;4.718;2023-01-27T05:27:15;102382.63;;;3.92;100.00
11190;BME280;5651;50.926;4.718;2023-01-27T05:29:42;102381.88;;;3.94;100.00
11190;BME280;5651;50.926;4.718;2023-01-27T05:32:08;102383.72;;;3.97;100.00
11190;BME280;5651;50.926;4.718;2023-01-27T05:34:34;102384.81;;;4.02;100.00
11190;BME280;5651;50.926;4.718;2023-01-27T05:37:00;102386.59;;;4.03;100.00
11190;BME280;5651;50.926;4.718;2023-01-27T05:39:26;102386.66;;;4.05;100.00
11190;BME280;5651;50.926;4.718;2023-01-27T05:41:52;102389.47;;;4.09;100.00
11190;BME280;5651;50.926;4.718;2023-01-27T05:44:18;102401.25;;;4.04;100.00
11190;BME280;5651;50.926;4.718;2023-01-27T05:46:44;102388.06;;;3.98;100.00
11190;BME280;5651;50.926;4.718;2023-01-27T05:49:10;102399.34;;;4.00;100.00
11190;BME280;5651;50.926;4.718;2023-01-27T05:51:37;102391.44;;;3.97;100.00
11190;BME280;5651;50.926;4.718;2023-01-27T05:54:07;102404.78;;;4.06;100.00
11190;BME280;5651;50.926;4.718;2023-01-27T05:56:33;102403.00;;;4.05;100.00
11190;BME280;5651;50.926;4.718;2023-01-27T05:58:59;102403.38;;;4.13;100.00
11190;BME280;5651;50.926;4.718;2023-01-27T06:01:27;102413.84;;;4.16;100.00
11190;BME280;5651;50.926;4.718;2023-01-27T06:03:53;102413.84;;;4.16;100.00
11190;BME280;5651;50.926;4.718;2023-01-27T06:06:22;102408.50;;;4.11;100.00
11190;BME280;5651;50.926;4.718;2023-01-27T06:08:48;102410.22;;;4.12;100.00
11190;BME280;5651;50.926;4.718;2023-01-27T06:11:16;102422.31;;;4.13;100.00
11190;BME280;5651;50.926;4.718;2023-01-27T06:13:42;102412.59;;;4.08;100.00
11190;BME280;5651;50.926;4.718;2023-01-27T06:16:10;102415.53;;;4.16;100.00
11190;BME280;5651;50.926;4.718;2023-01-27T06:18:36;102415.81;;;4.22;100.00
11190;BME280;5651;50.926;4.718;2023-01-27T06:21:04;102424.31;;;4.19;100.00
11190;BME280;5651;50.926;4.718;2023-01-27T06:23:30;102425.72;;;4.12;100.00
11190;BME280;5651;50.926;4.718;2023-01-27T06:26:04;102432.50;;;4.10;100.00
11190;BME280;5651;50.926;4.718;2023-01-27T06:28:30;102431.31;;;4.04;100.00
11190;BME280;5651;50.926;4.718;2023-01-27T06:31:07;102434.63;;;4.01;100.00
11190;BME280;5651;50.926;4.718;2023-01-27T06:33:33;102436.69;;;4.08;100.00
11190;BME280;5651;50.926;4.718;2023-01-27T06:36:03;102439.28;;;4.08;100.00
11190;BME280;5651;50.926;4.718;2023-01-27T06:38:30;102438.31;;;4.06;100.00
11190;BME280;5651;50.926;4.718;2023-01-27T06:40:55;102439.13;;;4.05;100.00
11190;BME280;5651;50.926;4.718;2023-01-27T06:43:21;102439.94;;;4.04;100.00
11190;BME280;5651;50.926;4.718;2023-01-27T06:45:51;102440.81;;;4.05;100.00
11190;BME280;5651;50.926;4.718;2023-01-27T06:48:17;102438.19;;;4.03;100.00
11190;BME280;5651;50.926;4.718;2023-01-27T06:50:42;102444.56;;;3.93;100.00
11190;BME280;5651;50.926;4.718;2023-01-27T06:53:08;102448.03;;;3.94;100.00
11190;BME280;5651;50.926;4.718;2023-01-27T06:55:35;102454.47;;;4.02;100.00
11190;BME280;5651;50.926;4.718;2023-01-27T06:58:12;102456.66;;;3.94;100.00
11190;BME280;5651;50.926;4.718;2023-01-27T07:00:39;102454.38;;;4.01;100.00
11190;BME280;5651;50.926;4.718;2023-01-27T07:03:05;102456.00;;;3.99;100.00
11190;BME280;5651;50.926;4.718;2023-01-27T07:05:33;102455.34;;;4.03;100.00
11190;BME280;5651;50.926;4.718;2023-01-27T07:07:59;102465.19;;;3.93;100.00
11190;BME280;5651;50.926;4.718;2023-01-27T07:10:25;102457.47;;;3.93;100.00
11190;BME280;5651;50.926;4.718;2023-01-27T07:12:51;102465.00;;;3.89;100.00
11190;BME280;5651;50.926;4.718;2023-01-27T07:15:17;102463.06;;;3.85;100.00
11190;BME280;5651;50.926;4.718;2023-01-27T07:17:43;102467.13;;;3.79;100.00
11190;BME280;5651;50.926;4.718;2023-01-27T07:20:11;102472.91;;;3.75;100.00
11190;BME280;5651;50.926;4.718;2023-01-27T07:22:38;102478.16;;;3.77;100.00
11190;BME280;5651;50.926;4.718;2023-01-27T07:25:04;102479.09;;;3.79;100.00
11190;BME280;5651;50.926;4.718;2023-01-27T07:27:31;102485.16;;;3.79;100.00
11190;BME280;5651;50.926;4.718;2023-01-27T07:29:57;102480.88;;;3.80;100.00
11190;BME280;5651;50.926;4.718;2023-01-27T07:32:23;102484.38;;;3.80;100.00
11190;BME280;5651;50.926;4.718;2023-01-27T07:34:48;102485.97;;;3.78;100.00
11190;BME280;5651;50.926;4.718;2023-01-27T07:37:14;102482.50;;;3.78;100.00
11190;BME280;5651;50.926;4.718;2023-01-27T07:39:40;102481.78;;;3.80;100.00
11190;BME280;5651;50.926;4.718;2023-01-27T07:42:07;102482.41;;;3.76;100.00
11190;BME280;5651;50.926;4.718;2023-01-27T07:44:33;102484.38;;;3.80;100.00
11190;BME280;5651;50.926;4.718;2023-01-27T07:46:59;102480.81;;;3.78;100.00
11190;BME280;5651;50.926;4.718;2023-01-27T07:49:25;102484.94;;;3.75;100.00
11190;BME280;5651;50.926;4.718;2023-01-27T07:51:50;102473.59;;;3.71;100.00
11190;BME280;5651;50.926;4.718;2023-01-27T07:54:16;102481.38;;;3.73;100.00
11190;BME280;5651;50.926;4.718;2023-01-27T07:56:42;102483.16;;;3.74;100.00
11190;BME280;5651;50.926;4.718;2023-01-27T07:59:10;102482.50;;;3.78;100.00
11190;BME280;5651;50.926;4.718;2023-01-27T08:01:36;102478.31;;;3.80;100.00
11190;BME280;5651;50.926;4.718;2023-01-27T08:04:02;102480.00;;;3.79;100.00
11190;BME280;5651;50.926;4.718;2023-01-27T08:06:28;102481.69;;;3.79;100.00
11190;BME280;5651;50.926;4.718;2023-01-27T08:08:54;102483.53;;;3.81;100.00
11190;BME280;5651;50.926;4.718;2023-01-27T08:11:20;102486.28;;;3.85;100.00
11190;BME280;5651;50.926;4.718;2023-01-27T08:13:45;102486.09;;;3.81;100.00
11190;BME280;5651;50.926;4.718;2023-01-27T08:16:13;102486.03;;;3.80;100.00
11190;BME280;5651;50.926;4.718;2023-01-27T08:18:39;102484.44;;;3.82;100.00
11190;BME280;5651;50.926;4.718;2023-01-27T08:21:08;102487.00;;;3.82;100.00
11190;BME280;5651;50.926;4.718;2023-01-27T08:23:34;102492.97;;;3.81;100.00
11190;BME280;5651;50.926;4.718;2023-01-27T08:26:01;102494.69;;;3.80;100.00
11190;BME280;5651;50.926;4.718;2023-01-27T08:28:29;102493.03;;;3.83;100.00
11190;BME280;5651;50.926;4.718;2023-01-27T08:31:20;102495.59;;;3.83;100.00
11190;BME280;5651;50.926;4.718;2023-01-27T08:33:51;102496.59;;;3.85;100.00
11190;BME280;5651;50.926;4.718;2023-01-27T08:36:18;102499.31;;;3.88;100.00
11190;BME280;5651;50.926;4.718;2023-01-27T08:38:45;102508.50;;;3.83;100.00
11190;BME280;5651;50.926;4.718;2023-01-27T08:41:17;102502.47;;;3.82;100.00
11190;BME280;5651;50.926;4.718;2023-01-27T08:43:44;102502.47;;;3.82;100.00
11190;BME280;5651;50.926;4.718;2023-01-27T08:46:11;102502.66;;;3.85;100.00
11190;BME280;5651;50.926;4.718;2023-01-27T08:48:38;102503.22;;;3.79;100.00
11190;BME280;5651;50.926;4.718;2023-01-27T08:51:04;102507.69;;;3.84;100.00
11190;BME280;5651;50.926;4.718;2023-01-27T08:53:32;102512.06;;;3.85;100.00
11190;BME280;5651;50.926;4.718;2023-01-27T08:56:03;102506.66;;;3.80;100.00
11190;BME280;5651;50.926;4.718;2023-01-27T08:58:30;102513.81;;;3.86;100.00
11190;BME280;5651;50.926;4.718;2023-01-27T09:00:59;102514.81;;;3.88;100.00
11190;BME280;5651;50.926;4.718;2023-01-27T09:03:26;102505.28;;;3.87;100.00
11190;BME280;5651;50.926;4.718;2023-01-27T09:05:52;102509.66;;;3.88;100.00
11190;BME280;5651;50.926;4.718;2023-01-27T09:08:18;102516.66;;;3.90;100.00
11190;BME280;5651;50.926;4.718;2023-01-27T09:10:44;102511.72;;;3.95;100.00
11190;BME280;5651;50.926;4.718;2023-01-27T09:13:10;102509.13;;;3.95;100.00
11190;BME280;5651;50.926;4.718;2023-01-27T09:15:36;102514.13;;;3.92;100.00
11190;BME280;5651;50.926;4.718;2023-01-27T09:18:03;102518.72;;;3.97;100.00
11190;BME280;5651;50.926;4.718;2023-01-27T09:20:30;102519.97;;;4.06;100.00
11190;BME280;5651;50.926;4.718;2023-01-27T09:22:56;102522.78;;;4.10;100.00
11190;BME280;5651;50.926;4.718;2023-01-27T09:25:23;102520.78;;;4.05;100.00
11190;BME280;5651;50.926;4.718;2023-01-27T09:27:56;102525.22;;;4.07;100.00
11190;BME280;5651;50.926;4.718;2023-01-27T09:30:24;102522.63;;;4.07;100.00
11190;BME280;5651;50.926;4.718;2023-01-27T09:32:51;102526.91;;;4.07;100.00
11190;BME280;5651;50.926;4.718;2023-01-27T09:35:17;102531.34;;;4.09;100.00
11190;BME280;5651;50.926;4.718;2023-01-27T09:37:55;102537.66;;;4.16;100.00
11190;BME280;5651;50.926;4.718;2023-01-27T09:40:32;102537.66;;;4.16;100.00
11190;BME280;5651;50.926;4.718;2023-01-27T09:43:08;102531.78;;;4.19;100.00
11190;BME280;5651;50.926;4.718;2023-01-27T09:45:43;102539.22;;;4.31;100.00
11190;BME280;5651;50.926;4.718;2023-01-27T09:51:07;102546.03;;;4.28;100.00
11190;BME280;5651;50.926;4.718;2023-01-27T09:56:51;102543.00;;;4.37;100.00
11190;BME280;5651;50.926;4.718;2023-01-27T10:05:32;102546.84;;;4.46;100.00
11190;BME280;5651;50.926;4.718;2023-01-27T10:18:47;102549.78;;;4.53;100.00
11190;BME280;5651;50.926;4.718;2023-01-27T10:29:46;102524.50;;;4.64;100.00
11190;BME280;5651;50.926;4.718;2023-01-27T10:32:24;102523.00;;;4.69;100.00
11190;BME280;5651;50.926;4.718;2023-01-27T10:35:07;102522.53;;;4.78;100.00
11190;BME280;5651;50.926;4.718;2023-01-27T10:38:06;102520.19;;;4.83;100.00
11190;BME280;5651;50.926;4.718;2023-01-27T10:48:54;102518.16;;;4.95;100.00
11190;BME280;5651;50.926;4.718;2023-01-27T10:51:29;102524.44;;;5.00;100.00
11190;BME280;5651;50.926;4.718;2023-01-27T10:54:11;102521.84;;;5.00;100.00
11190;BME280;5651;50.926;4.718;2023-01-27T10:57:31;102525.56;;;5.07;100.00
11190;BME280;5651;50.926;4.718;2023-01-27T11:00:05;102525.56;;;5.07;100.00
11190;BME280;5651;50.926;4.718;2023-01-27T11:02:44;102520.97;;;5.19;100.00
11190;BME280;5651;50.926;4.718;2023-01-27T11:05:22;102521.44;;;5.11;100.00
11190;BME280;5651;50.926;4.718;2023-01-27T11:07:59;102519.06;;;5.15;100.00
11190;BME280;5651;50.926;4.718;2023-01-27T11:10:34;102515.66;;;5.16;100.00
11190;BME280;5651;50.926;4.718;2023-01-27T11:13:02;102510.44;;;5.15;100.00
11190;BME280;5651;50.926;4.718;2023-01-27T11:15:33;102515.13;;;5.23;100.00
11190;BME280;5651;50.926;4.718;2023-01-27T11:18:14;102517.66;;;5.22;100.00
11190;BME280;5651;50.926;4.718;2023-01-27T11:20:44;102511.13;;;5.30;100.00
11190;BME280;5651;50.926;4.718;2023-01-27T11:23:18;102510.84;;;5.24;100.00
11190;BME280;5651;50.926;4.718;2023-01-27T11:28:50;102516.28;;;5.30;100.00
11190;BME280;5651;50.926;4.718;2023-01-27T11:34:05;102512.78;;;5.30;100.00
11190;BME280;5651;50.926;4.718;2023-01-27T11:36:33;102516.56;;;5.36;100.00
11190;BME280;5651;50.926;4.718;2023-01-27T11:38:59;102516.69;;;5.39;100.00
11190;BME280;5651;50.926;4.718;2023-01-27T11:41:40;102511.91;;;5.49;100.00
11190;BME280;5651;50.926;4.718;2023-01-27T11:44:36;102507.03;;;5.35;100.00
11190;BME280;5651;50.926;4.718;2023-01-27T11:47:05;102513.41;;;5.44;100.00
11190;BME280;5651;50.926;4.718;2023-01-27T11:49:40;102505.34;;;5.36;100.00
11190;BME280;5651;50.926;4.718;2023-01-27T11:52:14;102499.94;;;5.51;100.00
11190;BME280;5651;50.926;4.718;2023-01-27T11:55:37;102504.50;;;5.57;100.00
11190;BME280;5651;50.926;4.718;2023-01-27T11:57:27;102510.44;;;5.54;100.00
11190;BME280;5651;50.926;4.718;2023-01-27T12:00:06;102515.41;;;5.49;100.00
11190;BME280;5651;50.926;4.718;2023-01-27T12:03:23;102511.34;;;5.56;100.00
11190;BME280;5651;50.926;4.718;2023-01-27T12:05:55;102510.47;;;5.55;100.00
11190;BME280;5651;50.926;4.718;2023-01-27T12:08:46;102502.13;;;5.42;100.00
11190;BME280;5651;50.926;4.718;2023-01-27T12:13:57;102510.69;;;5.40;100.00
11190;BME280;5651;50.926;4.718;2023-01-27T12:16:39;102509.25;;;5.47;100.00
11190;BME280;5651;50.926;4.718;2023-01-27T12:19:26;102506.53;;;5.44;100.00
11190;BME280;5651;50.926;4.718;2023-01-27T12:21:57;102509.81;;;5.40;100.00
11190;BME280;5651;50.926;4.718;2023-01-27T12:24:30;102511.22;;;5.33;100.00
11190;BME280;5651;50.926;4.718;2023-01-27T12:26:58;102507.03;;;5.16;100.00
11190;BME280;5651;50.926;4.718;2023-01-27T12:29:40;102511.09;;;5.11;100.00
11190;BME280;5651;50.926;4.718;2023-01-27T12:32:16;102508.19;;;5.03;100.00
11190;BME280;5651;50.926;4.718;2023-01-27T12:34:46;102504.03;;;5.06;100.00
11190;BME280;5651;50.926;4.718;2023-01-27T12:37:22;102500.69;;;5.09;100.00
11190;BME280;5651;50.926;4.718;2023-01-27T12:39:52;102497.72;;;5.19;100.00
11190;BME280;5651;50.926;4.718;2023-01-27T12:47:54;102485.00;;;5.04;100.00
11190;BME280;5651;50.926;4.718;2023-01-27T12:50:24;102491.06;;;5.05;100.00
11190;BME280;5651;50.926;4.718;2023-01-27T12:53:10;102485.41;;;4.94;100.00
11190;BME280;5651;50.926;4.718;2023-01-27T12:58:54;102488.81;;;4.93;100.00
11190;BME280;5651;50.926;4.718;2023-01-27T13:01:32;102482.81;;;4.94;100.00
11190;BME280;5651;50.926;4.718;2023-01-27T13:04:03;102481.94;;;4.94;100.00
11190;BME280;5651;50.926;4.718;2023-01-27T13:09:04;102476.91;;;4.97;100.00
11190;BME280;5651;50.926;4.718;2023-01-27T13:11:34;102471.66;;;4.95;100.00
11190;BME280;5651;50.926;4.718;2023-01-27T13:14:02;102476.16;;;4.99;100.00
11190;BME280;5651;50.926;4.718;2023-01-27T13:16:31;102471.75;;;4.97;100.00
11190;BME280;5651;50.926;4.718;2023-01-27T13:18:58;102475.19;;;4.97;100.00
11190;BME280;5651;50.926;4.718;2023-01-27T13:21:35;102469.97;;;4.96;100.00
11190;BME280;5651;50.926;4.718;2023-01-27T13:24:05;102471.00;;;4.99;100.00
11190;BME280;5651;50.926;4.718;2023-01-27T13:26:35;102476.97;;;4.98;100.00
11190;BME280;5651;50.926;4.718;2023-01-27T13:29:11;102471.94;;;5.01;100.00
11190;BME280;5651;50.926;4.718;2023-01-27T13:31:49;102475.34;;;5.00;100.00
11190;BME280;5651;50.926;4.718;2023-01-27T13:36:55;102478.03;;;5.03;100.00
11190;BME280;5651;50.926;4.718;2023-01-27T13:42:18;102477.78;;;4.97;100.00
11190;BME280;5651;50.926;4.718;2023-01-27T13:44:58;102476.28;;;5.02;100.00
11190;BME280;5651;50.926;4.718;2023-01-27T13:47:39;102484.94;;;5.03;100.00
11190;BME280;5651;50.926;4.718;2023-01-27T13:52:54;102479.75;;;5.03;100.00
11190;BME280;5651;50.926;4.718;2023-01-27T13:58:04;102491.06;;;5.05;100.00
11190;BME280;5651;50.926;4.718;2023-01-27T14:00:50;102486.75;;;5.05;100.00
11190;BME280;5651;50.926;4.718;2023-01-27T14:03:28;102490.09;;;5.03;100.00
11190;BME280;5651;50.926;4.718;2023-01-27T14:06:20;102498.97;;;4.90;100.00
11190;BME280;5651;50.926;4.718;2023-01-27T14:27:44;102511.84;;;4.88;100.00
11190;BME280;5651;50.926;4.718;2023-01-27T14:30:13;102514.41;;;4.88;100.00
11190;BME280;5651;50.926;4.718;2023-01-27T14:40:16;102529.63;;;4.82;100.00
11190;BME280;5651;50.926;4.718;2023-01-27T14:45:22;102529.25;;;4.74;100.00
11190;BME280;5651;50.926;4.718;2023-01-27T15:07:55;102535.75;;;4.66;100.00
11190;BME280;5651;50.926;4.718;2023-01-27T15:10:30;102540.41;;;4.73;100.00
11190;BME280;5651;50.926;4.718;2023-01-27T15:13:22;102542.75;;;4.69;100.00
11190;BME280;5651;50.926;4.718;2023-01-27T15:18:50;102544.31;;;4.65;100.00
11190;BME280;5651;50.926;4.718;2023-01-27T15:26:28;102553.47;;;4.58;100.00
11190;BME280;5651;50.926;4.718;2023-01-27T15:28:56;102553.41;;;4.57;100.00
11190;BME280;5651;50.926;4.718;2023-01-27T15:31:28;102554.22;;;4.56;100.00